Flight Track Log - Related Links

Times and Time Zones

All times are in EDT time to prevent confusion due to time zone crossing. See the CES2228 flight status page for this flight to view local times or setup timezone preferences in your user account.

Time Position Orientation Groundspeed Altitude Reporting Facility
EDT Latitude Longitude Course Direction KTS MPH feet Rate Location/Type
Mon 10:03:00 PM 32.7797 106.1311 91° East  Level Estimated
Mon 10:04:00 PM 32.7740 106.2670 93° East  Level Estimated
Mon 10:05:00 PM 32.7682 106.4028 93° East  Level Estimated
Mon 10:06:00 PM 32.7622 106.5387 93° East  Level Estimated
Mon 10:07:00 PM 32.7560 106.6745 93° East  Level Estimated
Mon 10:08:00 PM 32.7498 106.8102 93° East  Level Estimated
Mon 10:09:00 PM 32.7433 106.9460 93° East  Level Estimated
Mon 10:10:00 PM 32.7368 107.0818 93° East  Level Estimated
Mon 10:11:00 PM 32.7300 107.2175 93° East  Level Estimated
Mon 10:12:00 PM 32.7232 107.3532 93° East  Level Estimated
Mon 10:13:00 PM 32.7162 107.4889 93° East  Level Estimated
Mon 10:14:00 PM 32.7090 107.6246 94° East  Level Estimated
Mon 10:15:00 PM 32.7017 107.7602 94° East  Level Estimated
Mon 10:16:00 PM 32.6943 107.8959 94° East  Level Estimated
Mon 10:17:00 PM 32.6867 108.0315 94° East  Level Estimated
Mon 10:18:00 PM 32.6790 108.1671 94° East  Level Estimated
Mon 10:19:00 PM 32.6711 108.3026 94° East  Level Estimated
Mon 10:20:00 PM 32.6630 108.4381 94° East  Level Estimated
Mon 10:21:00 PM 32.6549 108.5736 94° East  Level Estimated
Mon 10:22:00 PM 32.6465 108.7091 94° East  Level Estimated
Mon 10:23:00 PM 32.6381 108.8446 94° East  Level Estimated
Mon 10:24:00 PM 32.6295 108.9800 94° East  Level Estimated
Mon 10:25:00 PM 32.6207 109.1154 94° East  Level Estimated
Mon 10:26:00 PM 32.6118 109.2508 94° East  Level Estimated
Mon 10:27:00 PM 32.6027 109.3862 95° East  Level Estimated
Mon 10:28:00 PM 32.5936 109.5215 95° East  Level Estimated
Mon 10:29:00 PM 32.5842 109.6568 95° East  Level Estimated
Mon 10:30:00 PM 32.5747 109.7920 95° East  Level Estimated
Mon 10:31:00 PM 32.5651 109.9273 95° East  Level Estimated
Mon 10:32:00 PM 32.5553 110.0625 95° East  Level Estimated
Mon 10:33:00 PM 32.5454 110.1977 95° East  Level Estimated
Mon 10:34:00 PM 32.5354 110.3328 95° East  Level Estimated
Mon 10:35:00 PM 32.5252 110.4679 95° East  Level Estimated
Mon 10:36:00 PM 32.5148 110.6030 95° East  Level Estimated
Mon 10:37:00 PM 32.5043 110.7381 95° East  Level Estimated
Mon 10:38:00 PM 32.4937 110.8731 95° East  Level Estimated
Mon 10:39:00 PM 32.4829 111.0081 95° East  Level Estimated
Mon 10:40:00 PM 32.4720 111.1431 95° East  Level Estimated
Mon 10:41:00 PM 32.4609 111.2780 96° East  Level Estimated
Mon 10:42:00 PM 32.4497 111.4129 96° East  Level Estimated
Mon 10:43:00 PM 32.4383 111.5478 96° East  Level Estimated
Mon 10:44:00 PM 32.4268 111.6826 96° East  Level Estimated
Mon 10:45:00 PM 32.4151 111.8174 96° East  Level Estimated
Mon 10:46:00 PM 32.4034 111.9521 96° East  Level Estimated
Mon 10:47:00 PM 32.3914 112.0868 96° East  Level Estimated
Mon 10:48:00 PM 32.3793 112.2215 96° East  Level Estimated
Mon 10:49:00 PM 32.3671 112.3562 96° East  Level Estimated
Mon 10:50:00 PM 32.3548 112.4908 96° East  Level Estimated
Mon 10:51:00 PM 32.3423 112.6254 96° East  Level Estimated
Mon 10:52:00 PM 32.3296 112.7599 96° East  Level Estimated
Mon 10:53:00 PM 32.3168 112.8944 96° East  Level Estimated
Mon 10:54:00 PM 32.3039 113.0289 96° East  Level Estimated
Mon 10:55:00 PM 32.2908 113.1633 97° East  Level Estimated
Mon 10:56:00 PM 32.2776 113.2977 97° East  Level Estimated
Mon 10:57:00 PM 32.2642 113.4320 97° East  Level Estimated
Mon 10:58:00 PM 32.2507 113.5663 97° East  Level Estimated
Mon 10:59:00 PM 32.2371 113.7006 97° East  Level Estimated
Mon 11:00:00 PM 32.2233 113.8348 97° East  Level Estimated
Mon 11:01:00 PM 32.2094 113.9690 97° East  Level Estimated
Mon 11:02:00 PM 32.1953 114.1031 97° East  Level Estimated
Mon 11:03:00 PM 32.1811 114.2372 97° East  Level Estimated
Mon 11:04:00 PM 32.1667 114.3713 97° East  Level Estimated
Mon 11:05:00 PM 32.1522 114.5053 97° East  Level Estimated
Mon 11:06:00 PM 32.1376 114.6393 97° East  Level Estimated
Mon 11:07:00 PM 32.1228 114.7732 97° East  Level Estimated
Mon 11:08:00 PM 32.1079 114.9071 97° East  Level Estimated
Mon 11:09:00 PM 32.0928 115.0409 98° East  Level Estimated
Mon 11:10:00 PM 32.0776 115.1747 98° East  Level Estimated
Mon 11:11:00 PM 32.0623 115.3085 98° East  Level Estimated
Mon 11:12:00 PM 32.0468 115.4422 98° East  Level Estimated
Mon 11:13:00 PM 32.0312 115.5759 98° East  Level Estimated
Mon 11:14:00 PM 32.0154 115.7095 98° East  Level Estimated
Mon 11:15:00 PM 31.9995 115.8431 98° East  Level Estimated
Mon 11:16:00 PM 31.9835 115.9766 98° East  Level Estimated
Mon 11:17:00 PM 31.9673 116.1101 98° East  Level Estimated
Mon 11:18:00 PM 31.9510 116.2435 98° East  Level Estimated
Mon 11:19:00 PM 31.9345 116.3769 98° East  Level Estimated
Mon 11:20:00 PM 31.9179 116.5102 98° East  Level Estimated
Mon 11:21:00 PM 31.9012 116.6435 98° East  Level Estimated
Mon 11:22:00 PM 31.8843 116.7767 98° East  Level Estimated
Mon 11:23:00 PM 31.8673 116.9099 99° East  Level Estimated
Mon 11:24:00 PM 31.8502 117.0431 99° East  Level Estimated
Mon 11:25:00 PM 31.8329 117.1761 99° East  Level Estimated
Mon 11:26:00 PM 31.8154 117.3092 99° East  Level Estimated
Mon 11:27:00 PM 31.7979 117.4422 99° East  Level Estimated
Mon 11:28:00 PM 31.7801 117.5751 99° East  Level Estimated
Mon 11:29:00 PM 31.7623 117.7080 99° East  Level Estimated
Mon 11:30:00 PM 31.7443 117.8409 99° East  Level Estimated
Mon 11:31:00 PM 31.7262 117.9736 99° East  Level Estimated
Mon 11:32:00 PM 31.7079 118.1064 99° East  Level Estimated
Mon 11:33:00 PM 31.6895 118.2390 99° East  Level Estimated
Mon 11:34:00 PM 31.6710 118.3717 99° East  Level Estimated
Mon 11:35:00 PM 31.6523 118.5042 99° East  Level Estimated
Mon 11:36:00 PM 31.6335 118.6368 99° East  Level Estimated
Mon 11:37:00 PM 31.6146 118.7692 99° East  Level Estimated
Mon 11:38:00 PM 31.5955 118.9016 100° East  Level Estimated
Mon 11:39:00 PM 31.5763 119.0340 100° East  Level Estimated
Mon 11:40:00 PM 31.5569 119.1663 100° East  Level Estimated
Mon 11:41:00 PM 31.5374 119.2986 100° East  Level Estimated
Mon 11:42:00 PM 31.5178 119.4307 100° East  Level Estimated
Mon 11:43:00 PM 31.4980 119.5629 100° East  Level Estimated
Mon 11:44:00 PM 31.4781 119.6950 100° East  Level Estimated
Mon 11:45:00 PM 31.4581 119.8270 100° East  Level Estimated
Mon 11:46:00 PM 31.4379 119.9590 100° East  Level Estimated
Mon 11:47:00 PM 31.4176 120.0909 100° East  Level Estimated
Mon 11:48:00 PM 31.3972 120.2227 100° East  Level Estimated
Mon 11:49:00 PM 31.3766 120.3545 100° East  Level Estimated
Mon 11:50:00 PM 31.3559 120.4863 100° East  Level Estimated
Mon 11:51:00 PM 31.3351 120.6179 100° East  Level Estimated
Mon 11:52:00 PM 31.3141 120.7496 101° East  Level Estimated
Mon 11:53:00 PM 31.2930 120.8811 101° East  Level Estimated
Mon 11:54:00 PM 31.2717 121.0126 101° East  Level Estimated
Mon 11:55:00 PM 31.2504 121.1441 101° East  Level Estimated
Mon 11:56:00 PM 31.2288 121.2755 101° East  Level Estimated
Mon 11:57:00 PM 31.2072 121.4068 101° East  Level Estimated
Mon 11:58:00 PM 31.1854 121.5380 101° East  Level Estimated
Mon 11:59:00 PM 31.1635 121.6693 101° East  Level Estimated
Tue 12:00:00 AM 31.1428 121.7924 101° East  Level Estimated
Tue 12:01:00 AM 31.1428 121.7924 North  Level Estimated
Tue 12:01:27 AM 31.4368 120.8315 109° East 361 415 17,500  Level FlightAware ADS-B (ZSSS / SHA)
Tue 12:01:57 AM 31.4198 120.8877 109° East 355 409 16,600 -1,700 Descending FlightAware ADS-B (ZSSS / SHA)
Tue 12:02:27 AM 31.4035 120.9407 109° East 349 402 15,800 -1,700 Descending FlightAware ADS-B (ZSSS / SHA)
Tue 12:02:57 AM 31.3867 120.9953 109° East 342 394 14,900 -1,700 Descending FlightAware ADS-B (ZSSS / SHA)
Tue 12:03:27 AM 31.3716 121.0445 109° East 336 387 14,100 -1,700 Descending FlightAware ADS-B (ZSSS / SHA)
Tue 12:03:57 AM 31.3559 121.0958 109° East 331 381 13,200 -1,700 Descending FlightAware ADS-B (ZSSS / SHA)
Tue 12:04:27 AM 31.3400 121.1475 109° East 326 375 12,400 -1,400 Descending FlightAware ADS-B (ZSSS / SHA)
Tue 12:04:57 AM 31.3259 121.1947 109° East 312 359 11,800 -600 Descending FlightAware ADS-B (ZSSS / SHA)
Tue 12:05:37 AM 31.3060 121.2612 109° East 320 368 11,700 -353 Descending FlightAware ADS-B (ZSSS / SHA)
Tue 12:06:05 AM 31.2930 121.3038 109° East 296 341 11,400 -1,125 Descending FlightAware ADS-B (ZSSS / SHA)
Tue 12:06:25 AM 31.2857 121.3356 96° East 286 329 10,800 -1,875 Descending FlightAware ADS-B (ZSSS / SHA)
Tue 12:06:37 AM 31.2878 121.3543 79° East 284 327 10,400 -2,222 Descending FlightAware ADS-B (ZSSS / SHA)
Tue 12:06:52 AM 31.2914 121.3754 78° East 281 323 9,800 -2,483 Descending FlightAware ADS-B (ZSSS / SHA)
Tue 12:07:06 AM 31.2950 121.3963 78° East 280 322 9,200 -2,400 Descending FlightAware ADS-B (ZSSS / SHA)
Tue 12:07:22 AM 31.2990 121.4196 78° East 282 325 8,600 -1,941 Descending FlightAware ADS-B (ZSSS / SHA)
Tue 12:07:40 AM 31.3037 121.4471 78° East 270 311 8,100 -1,886 Descending FlightAware ADS-B (ZSSS / SHA)
Tue 12:07:57 AM 31.3077 121.4700 78° East 267 307 7,500 -2,400 Descending FlightAware ADS-B (ZSSS / SHA)
Tue 12:08:10 AM 31.3109 121.4882 78° East 268 308 6,900 -2,357 Descending FlightAware ADS-B (ZSSS / SHA)
Tue 12:08:25 AM 31.3148 121.5106 78° East 268 308 6,400 -1,655 Descending FlightAware ADS-B (ZSSS / SHA)
Tue 12:08:39 AM 31.3181 121.5295 78° East 258 297 6,100 -1,400 Descending FlightAware ADS-B (ZSSS / SHA)
Tue 12:08:55 AM 31.3220 121.5508 77° East 247 284 5,700 -1,548 Descending FlightAware ADS-B (ZSSS / SHA)
Tue 12:09:10 AM 31.3258 121.5707 77° East 245 282 5,300 -968 Descending FlightAware ADS-B (ZSSS / SHA)
Tue 12:09:57 AM 31.3359 121.6224 76° East 205 236 4,700 -871 Descending FlightAware ADS-B (ZSSL)
Tue 12:10:12 AM 31.3399 121.6418 76° East 198 228 4,400 -1,355 Descending FlightAware ADS-B (ZSSL)
Tue 12:10:28 AM 31.3431 121.6576 76° East 199 229 4,000 -1,500 Descending FlightAware ADS-B (ZSSL)
Tue 12:10:40 AM 31.3458 121.6710 76° East 200 230 3,700 -1,500 Descending FlightAware ADS-B (ZSSL)
Tue 12:10:52 AM 31.3461 121.6831 99° East 197 227 3,400 -1,286 Descending FlightAware ADS-B (ZSSL)
Tue 12:10:54 AM 31.3457 121.6853 104° East 197 227 3,400 -545 Level FlightAware ADS-B (ZSSL)
Tue 12:11:03 AM 31.3419 121.6938 124° Southeast 193 222 3,300 -429 Descending FlightAware ADS-B (ZSSL)
Tue 12:11:22 AM 31.3307 121.7092 131° Southeast 187 215 3,200 -207 Descending FlightAware ADS-B (ZSSL)
Tue 12:11:32 AM 31.3249 121.7167 134° Southeast 186 214 3,200  Level FlightAware ADS-B (ZSSL)
Tue 12:11:38 AM 31.3213 121.7198 148° Southeast 184 212 3,200  Level FlightAware ADS-B (ZSSL)
Tue 12:11:42 AM 31.3175 121.7217 157° South 182 209 3,200 -316 Level FlightAware ADS-B (ZSSL)
Tue 12:11:57 AM 31.3057 121.7263 162° South 185 213 3,100 -600 Descending FlightAware ADS-B (ZSSL)
Tue 12:12:12 AM 31.2944 121.7305 161° South 184 212 2,900 -800 Descending FlightAware ADS-B (ZSSL)
Tue 12:12:27 AM 31.2840 121.7344 161° South 183 211 2,700 -1,000 Descending FlightAware ADS-B (ZSSL)
Tue 12:12:42 AM 31.2689 121.7401 162° South 182 209 2,400 -1,059 Descending FlightAware ADS-B (ZSSL)
Tue 12:13:01 AM 31.2542 121.7458 161° South 185 213 2,100 -873 Descending FlightAware ADS-B (ZSSL)
Tue 12:13:37 AM 31.2263 121.7562 161° South 170 196 1,600 -824 Descending FlightAware ADS-B (ZSSL)
Tue 12:13:52 AM 31.2171 121.7597 161° South 138 159 1,400 -686 Descending FlightAware ADS-B (ZSSL)
Tue 12:14:12 AM 31.2049 121.7644 161° South 121 139 1,200 -533 Descending FlightAware ADS-B (ZSSL)
Tue 12:14:37 AM 31.1922 121.7692 162° South 120 138 1,000 -529 Descending FlightAware ADS-B (ZSSL)
Tue 12:14:46 AM 31.1873 121.7710 162° South 120 138 900 -600 Descending FlightAware ADS-B (ZSSL)
Tue 12:15:07 AM 31.1767 121.7750 162° South 118 136 700 -667 Descending FlightAware ADS-B (ZSSL)
Tue 12:15:22 AM 31.1701 121.7775 161° South 120 138 500 -800 Descending FlightAware ADS-B (ZSSL)
Tue 12:17:00 AM 31.1428 121.7924 155° Southeast  Level Estimated
Tue 12:18:00 AM 31.1428 121.7924 North  Level Estimated
Tue 12:19:00 AM 31.1428 121.7924 North  Level Estimated
Tue 12:20:00 AM 31.1428 121.7924 North  Level Estimated
Tue 12:21:00 AM 31.1428 121.7924 North  Level Estimated
Tue 12:22:00 AM 31.1428 121.7924 North  Level Estimated
Tue 12:23:00 AM 31.1428 121.7924 North  Level Estimated
Tue 12:24:00 AM 31.1428 121.7924 North  Level Estimated
Tue 12:25:00 AM 31.1428 121.7924 North  Level Estimated

Login

Don't have an account? Register now (free) for customized features, flight alerts, and more!